WetterOnline ( https://www.wetteronline.de )

Wetter aktuell Marienberg

Aktuelles Wetter: Marienberg (640m)

6-stündlich | Neueste Meldungen
Ortszeit Temperatur Wetter
Di, 15.10. 8:00 10.3° C fast wolkenlos
Di, 15.10. 2:00 12.5° C wolkenlos
Mo, 14.10. 20:00 15.3° C wolkig
Mo, 14.10. 14:00 23.0° C wolkenlos
Mo, 14.10. 8:00 12.3° C fast wolkenlos
Mo, 14.10. 2:00 16.9° C wolkenlos
So, 13.10. 20:00 18.2° C bedeckt
So, 13.10. 14:00 21.7° C wolkenlos
Ortszeit Temperatur Wetter
Di, 15.10. 13:00 16.1° C wolkenlos
Di, 15.10. 12:50 16.1° C wolkenlos
Di, 15.10. 12:40 15.8° C wolkenlos
Di, 15.10. 12:30 15.6° C fast wolkenlos
Di, 15.10. 12:20 15.6° C fast wolkenlos
Di, 15.10. 12:10 15.5° C leicht bewölkt
Di, 15.10. 12:00 14.9° C leicht bewölkt
Di, 15.10. 11:30 14.3° C wolkig
Di, 15.10. 11:00 14.3° C leicht bewölkt
Di, 15.10. 10:30 14.2° C wolkig
Di, 15.10. 10:00 14.3° C leicht bewölkt
Ortszeit Relative Feuchte Sichtweite
Di, 15.10. 8:00 92% 16 km
Di, 15.10. 2:00 89% 11 km
Mo, 14.10. 20:00 77% 25 km
Mo, 14.10. 14:00 49% >70 km
Mo, 14.10. 8:00 86% 30 km
Mo, 14.10. 2:00 59% 65 km
So, 13.10. 20:00 66% 55 km
So, 13.10. 14:00 57% 50 km
Ortszeit Relative Feuchte Sichtweite
Di, 15.10. 13:00 69% 22 km
Di, 15.10. 12:50 69% -
Di, 15.10. 12:40 71% -
Di, 15.10. 12:30 72% 20 km
Di, 15.10. 12:20 72% -
Di, 15.10. 12:10 73% -
Di, 15.10. 12:00 75% 16 km
Di, 15.10. 11:30 78% 15 km
Di, 15.10. 11:00 79% 13 km
Di, 15.10. 10:30 78% 15 km
Di, 15.10. 10:00 77% 19 km
Ortszeit Niederschlagsmenge Niederschlagsart
Di, 15.10. 8:00 0.0 l/m2 in 12 Std. -
Di, 15.10. 2:00 0.0 l/m2 in 6 Std. -
Mo, 14.10. 20:00 0.0 l/m2 in 12 Std. -
Mo, 14.10. 14:00 0.0 l/m2 in 6 Std. -
Mo, 14.10. 8:00 0.0 l/m2 in 12 Std. -
Mo, 14.10. 2:00 0.0 l/m2 in 6 Std. -
So, 13.10. 20:00 0.0 l/m2 in 12 Std. -
So, 13.10. 14:00 0.0 l/m2 in 6 Std. -
Ortszeit Niederschlagsmenge Niederschlagsart
Di, 15.10. 13:00 0.0 l/m2 in 1 Std. -
Di, 15.10. 12:50 keine Meldung -
Di, 15.10. 12:40 keine Meldung -
Di, 15.10. 12:30 0.0 l/m2 in 1 Std. -
Di, 15.10. 12:20 keine Meldung -
Di, 15.10. 12:10 keine Meldung -
Di, 15.10. 12:00 0.0 l/m2 in 1 Std. -
Di, 15.10. 11:30 0.0 l/m2 in 1 Std. -
Di, 15.10. 11:00 0.0 l/m2 in 1 Std. -
Di, 15.10. 10:30 0.0 l/m2 in 1 Std. -
Di, 15.10. 10:00 0.0 l/m2 in 1 Std. -
Ortszeit Stärke Spitze Richtung
km/h Bft. km/h Grad Sektor
Di, 15.10. 8:00 4 1 29 130° SO
Di, 15.10. 2:00 14 3 25 160° S
Mo, 14.10. 20:00 7 2 25 130° SO
Mo, 14.10. 14:00 7 2 18 200° S
Mo, 14.10. 8:00 2 1 26 120° SO
Mo, 14.10. 2:00 11 2 29 190° S
So, 13.10. 20:00 9 2 31 170° S
So, 13.10. 14:00 14 3 25 210° SW
Ortszeit Stärke Spitze Richtung
km/h Bft. km/h Grad Sektor
Di, 15.10. 13:00 9 2 20 140° SO
Di, 15.10. 12:50 9 2 - 140° SO
Di, 15.10. 12:40 11 2 - 140° SO
Di, 15.10. 12:30 13 3 20 140° SO
Di, 15.10. 12:20 13 3 - 140° SO
Di, 15.10. 12:10 11 2 - 130° SO
Di, 15.10. 12:00 11 2 25 130° SO
Di, 15.10. 11:30 11 2 25 140° SO
Di, 15.10. 11:00 11 2 25 150° SO
Di, 15.10. 10:30 13 3 22 140° SO
Di, 15.10. 10:00 11 2 18 130° SO
Ortszeit Untergrenze Bedeckung Gattung
total tief tief mittel hoch
Di, 15.10. 8:00 10500 m 1/8 0/8 - - -
Di, 15.10. 2:00 - 0/8 0/8 - - -
Mo, 14.10. 20:00 4500 m 5/8 5/8 - - -
Mo, 14.10. 14:00 - 0/8 0/8 - - -
Mo, 14.10. 8:00 7200 m 1/8 0/8 - - -
Mo, 14.10. 2:00 - 0/8 0/8 - - -
So, 13.10. 20:00 3600 m 8/8 8/8 - - -
So, 13.10. 14:00 5100 m 0/8 0/8 - - -
Ortszeit Bedeckungsgrad in Achtel und Wolkenuntergrenze
Di, 15.10. 13:00 keine Wolken
Di, 15.10. 12:50 keine Wolken
Di, 15.10. 12:40 keine Wolken
Di, 15.10. 12:30 1(10500m)
Di, 15.10. 12:20 1(10500m)
Di, 15.10. 12:10 1(9000m) 3(10500m)
Di, 15.10. 12:00 5(9000m) 5(9000m)
Di, 15.10. 11:30 7(9000m)
Di, 15.10. 11:00 4(9000m) 7(10500m) 7(10500m)
Di, 15.10. 10:30 8(10500m)
Di, 15.10. 10:00 6(9000m) 7(10500m)
Ortszeit Luftdruck NN (hPa) Tendenz (hPa in 3 Std.)
Di, 15.10. 8:00 1011 - 0,9
Di, 15.10. 2:00 1012 - 1,4
Mo, 14.10. 20:00 1014 - 0,6
Mo, 14.10. 14:00 1014 - 1,3
Mo, 14.10. 8:00 1017 + 0,7
Mo, 14.10. 2:00 1015 + 0,1
So, 13.10. 20:00 1015 + 0,1
So, 13.10. 14:00 1014 - 0,4
Ortszeit Luftdruck NN (hPa) Tendenz (hPa in 3 Std.)
Di, 15.10. 13:00 1008 - 1,0
Di, 15.10. 12:50 1008 keine Meldung
Di, 15.10. 12:40 1008 keine Meldung
Di, 15.10. 12:30 1008 - 1,0
Di, 15.10. 12:20 1008 keine Meldung
Di, 15.10. 12:10 1008 keine Meldung
Di, 15.10. 12:00 1009 - 0,7
Di, 15.10. 11:30 1009 - 0,6
Di, 15.10. 11:00 1009 - 0,3
Di, 15.10. 10:30 1009 - 0,1
Di, 15.10. 10:00 1009 - 0,3
Ortszeit Schneehöhe (cm)
Di, 15.10. 8:00 0
Di, 15.10. 2:00 0
Mo, 14.10. 20:00 0
Mo, 14.10. 14:00 0
Mo, 14.10. 8:00 0
Mo, 14.10. 2:00 0
So, 13.10. 20:00 0
So, 13.10. 14:00 0
Ortszeit Schneehöhe (cm)
Di, 15.10. 13:00 0
Di, 15.10. 12:50 0
Di, 15.10. 12:40 0
Di, 15.10. 12:30 0
Di, 15.10. 12:20 0
Di, 15.10. 12:10 0
Di, 15.10. 12:00 0
Di, 15.10. 11:30 0
Di, 15.10. 11:00 0
Di, 15.10. 10:30 0
Di, 15.10. 10:00 0
Link zu dieser Seite / Seite empfehlen

Das Wetter in ...